Terminal Aerodrome Forecast
Issued by NWS Omaha/Valley, NE

Home | Current Version | Previous Version | Graphics & Text | Print | Product List | Glossary On
Versions: 1 2 3 4 5 6 7 8 9 10 11 12 13 14 15 16 17 18 19 20 21 22 23 24 25 26 27 28 29 30 31 32 33 34 35 36 37 38 39 40 41 42 43 44
000
FTUS43 KOAX 221722
TAFOFK
TAF
KOFK 221722Z 2218/2318 19011KT P6SM FEW005
     FM230900 26007KT P6SM SCT020 BKN250
     FM231200 33006KT 4SM BR SCT020 OVC060
     FM231500 33015KT P6SM SCT007 OVC020=

USA.gov is the U.S. government's official web portal to all federal, state and local government web resources and services.